Time,TemperatureF,DewpointF,PressureIn,WindDirection,WindDirectionDegrees,WindSpeedMPH,WindSpeedGustMPH,Humidity,HourlyPrecipIn,Conditions,Clouds,dailyrainin,SoftwareType,DateUTC
2013-07-09 00:00:00,68.6,67.7,29.98,NNE,15,0.0,3.0,97,0.00,,,0.00,VWS V14.01,2013-07-09 04:00:00,
2013-07-09 00:01:00,68.6,67.7,29.98,NNE,15,1.0,3.0,97,0.00,,,0.00,VWS V14.01,2013-07-09 04:01:00,
2013-07-09 00:06:00,68.6,67.7,29.98,NNE,14,0.0,2.0,97,0.00,,,0.00,VWS V14.01,2013-07-09 04:06:00,
2013-07-09 00:11:00,68.6,67.7,29.98,NNE,14,0.0,2.0,97,0.00,,,0.00,VWS V14.01,2013-07-09 04:11:00,
2013-07-09 00:16:00,68.6,67.7,29.98,NNE,14,0.0,2.0,97,0.00,,,0.00,VWS V14.01,2013-07-09 04:16:00,
2013-07-09 00:21:00,68.6,67.7,29.98,NNE,15,0.0,2.0,97,0.00,,,0.00,VWS V14.01,2013-07-09 04:21:00,
2013-07-09 00:26:00,68.6,67.7,29.98,NNE,15,0.0,2.0,97,0.00,,,0.00,VWS V14.01,2013-07-09 04:26:00,
2013-07-09 00:30:00,68.5,67.6,29.98,NNE,15,0.0,2.0,97,0.00,,,0.00,VWS V14.01,2013-07-09 04:30:00,
2013-07-09 00:31:00,68.6,67.7,29.98,NNE,15,0.0,2.0,97,0.00,,,0.00,VWS V14.01,2013-07-09 04:31:00,
2013-07-09 00:36:00,68.5,67.6,29.98,NNE,15,0.0,1.0,97,0.00,,,0.00,VWS V14.01,2013-07-09 04:36:00,
2013-07-09 00:41:00,68.5,67.6,29.98,NNE,14,1.0,2.0,97,0.00,,,0.00,VWS V14.01,2013-07-09 04:41:00,
2013-07-09 00:46:00,68.5,67.6,29.98,NNE,14,0.0,2.0,97,0.00,,,0.00,VWS V14.01,2013-07-09 04:46:00,
2013-07-09 00:51:00,68.5,67.6,29.98,NNE,14,0.0,2.0,97,0.00,,,0.00,VWS V14.01,2013-07-09 04:51:00,
2013-07-09 00:56:00,68.5,67.6,29.98,NNE,14,0.0,2.0,97,0.00,,,0.00,VWS V14.01,2013-07-09 04:56:00,
2013-07-09 01:00:00,68.5,67.6,29.98,NNE,14,0.0,2.0,97,0.00,,,0.00,VWS V14.01,2013-07-09 05:00:00,
2013-07-09 01:01:00,68.5,67.6,29.98,NNE,14,0.0,2.0,97,0.00,,,0.00,VWS V14.01,2013-07-09 05:01:00,
2013-07-09 01:06:00,68.6,67.7,29.98,NNE,14,0.0,1.0,97,0.00,,,0.00,VWS V14.01,2013-07-09 05:06:00,
2013-07-09 01:11:00,68.6,67.7,29.97,NNE,14,0.0,1.0,97,0.00,,,0.00,VWS V14.01,2013-07-09 05:11:00,
2013-07-09 01:16:00,68.7,67.8,29.97,NNE,14,0.0,1.0,97,0.00,,,0.00,VWS V14.01,2013-07-09 05:16:00,
2013-07-09 01:21:00,68.7,67.8,29.97,NNE,14,0.0,1.0,97,0.00,,,0.00,VWS V14.01,2013-07-09 05:21:00,
2013-07-09 01:26:00,68.8,67.9,29.97,NNE,14,1.0,2.0,97,0.00,,,0.00,VWS V14.01,2013-07-09 05:26:00,
2013-07-09 01:30:00,68.6,67.7,29.97,NNE,14,1.0,2.0,97,0.00,,,0.00,VWS V14.01,2013-07-09 05:30:00,
2013-07-09 01:31:00,68.7,67.8,29.97,NNE,14,1.0,2.0,97,0.00,,,0.00,VWS V14.01,2013-07-09 05:31:00,
2013-07-09 01:36:00,68.6,67.7,29.97,NNE,14,0.0,2.0,97,0.00,,,0.00,VWS V14.01,2013-07-09 05:36:00,
2013-07-09 01:41:00,68.5,67.6,29.97,NNE,14,0.0,4.0,97,0.00,,,0.00,VWS V14.01,2013-07-09 05:41:00,
2013-07-09 01:46:00,68.4,67.5,29.97,North,5,0.0,4.0,97,0.00,,,0.00,VWS V14.01,2013-07-09 05:46:00,
2013-07-09 01:51:00,68.3,67.4,29.97,North,5,1.0,4.0,97,0.00,,,0.00,VWS V14.01,2013-07-09 05:51:00,
2013-07-09 01:56:00,68.2,67.3,29.97,North,9,0.0,4.0,97,0.00,,,0.00,VWS V14.01,2013-07-09 05:56:00,
2013-07-09 02:00:00,68.1,67.2,29.98,North,355,1.0,4.0,97,0.00,,,0.00,VWS V14.01,2013-07-09 06:00:00,
2013-07-09 02:01:00,68.1,67.2,29.97,North,355,0.0,4.0,97,0.00,,,0.00,VWS V14.01,2013-07-09 06:01:00,
2013-07-09 02:06:00,68.1,67.5,29.98,NNE,14,0.0,3.0,98,0.00,,,0.00,VWS V14.01,2013-07-09 06:06:00,
2013-07-09 02:11:00,67.9,67.3,29.98,WNW,295,0.0,4.0,98,0.00,,,0.00,VWS V14.01,2013-07-09 06:11:00,
2013-07-09 02:16:00,67.7,66.8,29.98,NNW,347,0.0,4.0,97,0.00,,,0.00,VWS V14.01,2013-07-09 06:16:00,
2013-07-09 02:21:00,67.5,66.6,29.98,North,5,1.0,4.0,97,0.00,,,0.00,VWS V14.01,2013-07-09 06:21:00,
2013-07-09 02:26:00,67.5,66.9,29.98,NNW,335,0.0,4.0,98,0.00,,,0.00,VWS V14.01,2013-07-09 06:26:00,
2013-07-09 02:30:00,67.3,66.7,29.98,North,349,1.0,4.0,98,0.00,,,0.00,VWS V14.01,2013-07-09 06:30:00,
2013-07-09 02:31:00,67.4,66.8,29.98,North,349,2.0,4.0,98,0.00,,,0.00,VWS V14.01,2013-07-09 06:31:00,
2013-07-09 02:36:00,67.3,66.7,29.98,North,349,0.0,1.0,98,0.00,,,0.00,VWS V14.01,2013-07-09 06:36:00,
2013-07-09 02:41:00,67.3,66.7,29.98,North,349,0.0,2.0,98,0.00,,,0.00,VWS V14.01,2013-07-09 06:41:00,
2013-07-09 02:46:00,67.3,66.7,29.98,North,349,1.0,3.0,98,0.00,,,0.00,VWS V14.01,2013-07-09 06:46:00,
2013-07-09 02:51:00,67.3,66.7,29.98,North,349,0.0,3.0,98,0.00,,,0.00,VWS V14.01,2013-07-09 06:51:00,
2013-07-09 02:56:00,67.2,66.6,29.98,North,349,0.0,3.0,98,0.00,,,0.00,VWS V14.01,2013-07-09 06:56:00,
2013-07-09 03:00:00,67.2,66.6,29.98,North,349,1.0,3.0,98,0.00,,,0.00,VWS V14.01,2013-07-09 07:00:00,
2013-07-09 03:01:00,67.2,66.6,29.98,North,349,1.0,3.0,98,0.00,,,0.00,VWS V14.01,2013-07-09 07:01:00,
2013-07-09 03:06:00,67.1,66.5,29.98,North,349,1.0,2.0,98,0.00,,,0.00,VWS V14.01,2013-07-09 07:06:00,
2013-07-09 03:11:00,67.1,66.5,29.98,North,349,0.0,2.0,98,0.00,,,0.00,VWS V14.01,2013-07-09 07:11:00,
2013-07-09 03:16:00,67.1,66.5,29.98,North,349,0.0,2.0,98,0.00,,,0.00,VWS V14.01,2013-07-09 07:16:00,
2013-07-09 03:21:00,67.2,66.6,29.98,North,349,0.0,2.0,98,0.00,,,0.00,VWS V14.01,2013-07-09 07:21:00,
2013-07-09 03:26:00,67.3,66.7,29.97,North,349,2.0,2.0,98,0.00,,,0.00,VWS V14.01,2013-07-09 07:26:00,
2013-07-09 03:30:00,67.3,66.7,29.97,North,349,0.0,2.0,98,0.00,,,0.00,VWS V14.01,2013-07-09 07:30:00,
2013-07-09 03:31:00,67.3,66.7,29.97,North,349,0.0,2.0,98,0.00,,,0.00,VWS V14.01,2013-07-09 07:31:00,
2013-07-09 03:36:00,67.4,66.8,29.97,North,349,0.0,2.0,98,0.00,,,0.00,VWS V14.01,2013-07-09 07:36:00,
2013-07-09 03:41:00,67.4,66.8,29.97,North,349,0.0,2.0,98,0.00,,,0.00,VWS V14.01,2013-07-09 07:41:00,
2013-07-09 03:46:00,67.4,66.8,29.97,North,349,0.0,2.0,98,0.00,,,0.00,VWS V14.01,2013-07-09 07:46:00,
2013-07-09 03:52:00,67.5,66.9,29.97,North,349,0.0,2.0,98,0.00,,,0.00,VWS V14.01,2013-07-09 07:52:00,
2013-07-09 03:57:00,67.5,66.9,29.96,North,349,0.0,2.0,98,0.00,,,0.00,VWS V14.01,2013-07-09 07:57:00,
2013-07-09 04:00:00,67.6,67.0,29.96,North,349,0.0,2.0,98,0.00,,,0.00,VWS V14.01,2013-07-09 08:00:00,
2013-07-09 04:02:00,67.6,67.0,29.96,North,349,0.0,0.0,98,0.00,,,0.00,VWS V14.01,2013-07-09 08:02:00,
2013-07-09 04:07:00,67.5,66.9,29.96,North,349,0.0,1.0,98,0.00,,,0.00,VWS V14.01,2013-07-09 08:07:00,
2013-07-09 04:12:00,67.6,67.0,29.96,North,349,0.0,1.0,98,0.00,,,0.00,VWS V14.01,2013-07-09 08:12:00,
2013-07-09 04:17:00,67.5,66.9,29.97,North,349,1.0,3.0,98,0.00,,,0.00,VWS V14.01,2013-07-09 08:17:00,
2013-07-09 04:22:00,67.5,66.9,29.97,North,349,0.0,3.0,98,0.00,,,0.00,VWS V14.01,2013-07-09 08:22:00,
2013-07-09 04:27:00,67.3,66.7,29.96,NNW,333,0.0,4.0,98,0.00,,,0.00,VWS V14.01,2013-07-09 08:27:00,
2013-07-09 04:30:00,67.2,66.6,29.97,North,355,1.0,4.0,98,0.00,,,0.00,VWS V14.01,2013-07-09 08:30:00,
2013-07-09 04:32:00,67.2,66.6,29.97,North,355,1.0,2.0,98,0.00,,,0.00,VWS V14.01,2013-07-09 08:32:00,
2013-07-09 04:37:00,67.2,66.6,29.97,NE,38,2.0,4.0,98,0.00,,,0.00,VWS V14.01,2013-07-09 08:37:00,
2013-07-09 04:42:00,67.2,66.6,29.97,NNE,21,2.0,4.0,98,0.00,,,0.00,VWS V14.01,2013-07-09 08:42:00,
2013-07-09 04:47:00,67.2,66.6,29.97,NNE,17,2.0,4.0,98,0.00,,,0.00,VWS V14.01,2013-07-09 08:47:00,
2013-07-09 04:52:00,67.2,66.6,29.97,NNE,17,1.0,4.0,98,0.00,,,0.00,VWS V14.01,2013-07-09 08:52:00,
2013-07-09 04:57:00,67.2,66.9,29.97,NE,35,2.0,4.0,99,0.00,,,0.00,VWS V14.01,2013-07-09 08:57:00,
2013-07-09 05:00:00,67.3,67.0,29.98,NW,316,1.0,4.0,99,0.00,,,0.00,VWS V14.01,2013-07-09 09:00:00,
2013-07-09 05:02:00,67.3,67.0,29.98,NW,316,0.0,1.0,99,0.00,,,0.00,VWS V14.01,2013-07-09 09:02:00,
2013-07-09 05:07:00,67.3,67.0,29.98,NW,316,0.0,2.0,99,0.00,,,0.00,VWS V14.01,2013-07-09 09:07:00,
2013-07-09 05:12:00,67.1,66.5,29.98,NE,38,2.0,5.0,98,0.00,,,0.00,VWS V14.01,2013-07-09 09:12:00,
2013-07-09 05:17:00,67.1,66.5,29.99,NNE,20,0.0,5.0,98,0.00,,,0.00,VWS V14.01,2013-07-09 09:17:00,
2013-07-09 05:22:00,67.2,66.6,29.99,NNE,20,1.0,5.0,98,0.00,,,0.00,VWS V14.01,2013-07-09 09:22:00,
2013-07-09 05:27:00,67.2,66.6,29.99,NNW,338,0.0,5.0,98,0.00,,,0.00,VWS V14.01,2013-07-09 09:27:00,
2013-07-09 05:30:00,67.2,66.6,30.00,NNE,28,0.0,5.0,98,0.00,,,0.00,VWS V14.01,2013-07-09 09:30:00,
2013-07-09 05:32:00,67.2,66.6,30.00,NNE,28,0.0,1.0,98,0.00,,,0.00,VWS V14.01,2013-07-09 09:32:00,
2013-07-09 05:37:00,67.1,66.5,30.00,NNE,16,0.0,4.0,98,0.00,,,0.00,VWS V14.01,2013-07-09 09:37:00,
2013-07-09 05:42:00,67.1,66.5,29.99,North,5,1.0,4.0,98,0.00,,,0.00,VWS V14.01,2013-07-09 09:42:00,
2013-07-09 05:47:00,67.0,66.4,30.00,NE,37,2.0,5.0,98,0.00,,,0.00,VWS V14.01,2013-07-09 09:47:00,
2013-07-09 05:52:00,67.0,66.7,30.00,North,5,0.0,5.0,99,0.00,,,0.00,VWS V14.01,2013-07-09 09:52:00,
2013-07-09 05:57:00,67.0,66.7,30.00,North,5,0.0,5.0,99,0.00,,,0.00,VWS V14.01,2013-07-09 09:57:00,
2013-07-09 06:00:00,67.1,66.8,30.00,North,5,0.0,5.0,99,0.00,,,0.00,VWS V14.01,2013-07-09 10:00:00,
2013-07-09 06:02:00,67.1,66.8,30.00,North,5,0.0,1.0,99,0.00,,,0.00,VWS V14.01,2013-07-09 10:02:00,
2013-07-09 06:07:00,67.1,66.8,30.00,North,5,2.0,2.0,99,0.00,,,0.00,VWS V14.01,2013-07-09 10:07:00,
2013-07-09 06:12:00,67.0,66.7,30.01,North,5,1.0,3.0,99,0.00,,,0.00,VWS V14.01,2013-07-09 10:12:00,
2013-07-09 06:17:00,67.0,66.7,30.01,North,5,0.0,3.0,99,0.00,,,0.00,VWS V14.01,2013-07-09 10:17:00,
2013-07-09 06:22:00,66.9,66.6,30.01,North,5,0.0,3.0,99,0.00,,,0.00,VWS V14.01,2013-07-09 10:22:00,
2013-07-09 06:27:00,66.9,66.6,30.01,North,5,1.0,4.0,99,0.00,,,0.00,VWS V14.01,2013-07-09 10:27:00,
2013-07-09 06:30:00,66.9,66.6,30.01,North,5,0.0,4.0,99,0.00,,,0.00,VWS V14.01,2013-07-09 10:30:00,
2013-07-09 06:32:00,66.9,66.6,30.01,North,5,0.0,0.0,99,0.00,,,0.00,VWS V14.01,2013-07-09 10:32:00,
2013-07-09 06:37:00,66.9,66.6,30.01,North,5,0.0,2.0,99,0.00,,,0.00,VWS V14.01,2013-07-09 10:37:00,
2013-07-09 06:42:00,67.0,66.7,30.01,North,5,0.0,2.0,99,0.00,,,0.00,VWS V14.01,2013-07-09 10:42:00,
2013-07-09 06:47:00,67.0,66.7,30.01,North,5,0.0,2.0,99,0.00,,,0.00,VWS V14.01,2013-07-09 10:47:00,
2013-07-09 06:52:00,67.1,66.8,30.01,North,5,2.0,2.0,99,0.00,,,0.00,VWS V14.01,2013-07-09 10:52:00,
2013-07-09 06:57:00,67.2,66.9,30.01,North,5,0.0,3.0,99,0.00,,,0.00,VWS V14.01,2013-07-09 10:57:00,
2013-07-09 07:00:00,67.4,67.1,30.01,North,5,1.0,3.0,99,0.00,,,0.00,VWS V14.01,2013-07-09 11:00:00,
2013-07-09 07:02:00,67.4,67.1,30.01,North,5,0.0,1.0,99,0.00,,,0.00,VWS V14.01,2013-07-09 11:02:00,
2013-07-09 07:07:00,67.5,67.2,30.01,North,5,0.0,2.0,99,0.00,,,0.00,VWS V14.01,2013-07-09 11:07:00,
2013-07-09 07:12:00,67.6,67.3,30.01,North,5,2.0,3.0,99,0.00,,,0.00,VWS V14.01,2013-07-09 11:12:00,
2013-07-09 07:17:00,67.6,67.3,30.01,NW,315,1.0,3.0,99,0.00,,,0.00,VWS V14.01,2013-07-09 11:17:00,
2013-07-09 07:22:00,67.6,67.3,30.01,NNE,25,0.0,3.0,99,0.00,,,0.00,VWS V14.01,2013-07-09 11:22:00,
2013-07-09 07:27:00,67.7,67.4,30.01,NNE,25,1.0,3.0,99,0.00,,,0.00,VWS V14.01,2013-07-09 11:27:00,
2013-07-09 07:30:00,67.9,67.6,30.02,North,360,0.0,3.0,99,0.00,,,0.00,VWS V14.01,2013-07-09 11:30:00,
2013-07-09 07:32:00,67.9,67.6,30.02,North,360,1.0,1.0,99,0.00,,,0.00,VWS V14.01,2013-07-09 11:32:00,
2013-07-09 07:37:00,67.8,67.5,30.02,NE,49,1.0,3.0,99,0.00,,,0.00,VWS V14.01,2013-07-09 11:37:00,
2013-07-09 07:42:00,67.8,67.5,30.02,NE,47,1.0,3.0,99,0.00,,,0.00,VWS V14.01,2013-07-09 11:42:00,
2013-07-09 07:47:00,68.0,67.7,30.02,NE,47,1.0,3.0,99,0.00,,,0.00,VWS V14.01,2013-07-09 11:47:00,
2013-07-09 07:52:00,68.1,67.8,30.02,NE,47,0.0,3.0,99,0.00,,,0.00,VWS V14.01,2013-07-09 11:52:00,
2013-07-09 07:57:00,68.1,67.8,30.02,NE,47,0.0,3.0,99,0.00,,,0.00,VWS V14.01,2013-07-09 11:57:00,
2013-07-09 08:00:00,68.1,67.8,30.02,NE,47,0.0,3.0,99,0.00,,,0.00,VWS V14.01,2013-07-09 12:00:00,
2013-07-09 08:02:00,68.1,67.8,30.02,NE,47,0.0,0.0,99,0.00,,,0.00,VWS V14.01,2013-07-09 12:02:00,
2013-07-09 08:07:00,68.2,67.9,30.02,NE,47,0.0,1.0,99,0.00,,,0.00,VWS V14.01,2013-07-09 12:07:00,
2013-07-09 08:12:00,68.0,67.7,30.02,NE,40,0.0,2.0,99,0.00,,,0.00,VWS V14.01,2013-07-09 12:12:00,
2013-07-09 08:17:00,68.1,67.8,30.02,NE,40,0.0,2.0,99,0.00,,,0.00,VWS V14.01,2013-07-09 12:17:00,
2013-07-09 08:22:00,68.1,67.8,30.02,NE,41,0.0,2.0,99,0.00,,,0.00,VWS V14.01,2013-07-09 12:22:00,
2013-07-09 08:27:00,68.1,67.8,30.02,NE,41,1.0,2.0,99,0.00,,,0.00,VWS V14.01,2013-07-09 12:27:00,
2013-07-09 08:30:00,68.2,67.9,30.02,NE,41,0.0,2.0,99,0.00,,,0.00,VWS V14.01,2013-07-09 12:30:00,
2013-07-09 08:32:00,68.2,67.9,30.02,NE,41,0.0,0.0,99,0.00,,,0.00,VWS V14.01,2013-07-09 12:32:00,
2013-07-09 08:37:00,68.4,68.1,30.02,NE,40,1.0,3.0,99,0.00,,,0.00,VWS V14.01,2013-07-09 12:37:00,
2013-07-09 08:42:00,68.3,67.7,30.02,NNW,341,0.0,3.0,98,0.00,,,0.00,VWS V14.01,2013-07-09 12:42:00,
2013-07-09 08:47:00,68.5,67.9,30.02,NNW,341,3.0,3.0,98,0.00,,,0.00,VWS V14.01,2013-07-09 12:47:00,
2013-07-09 08:52:00,68.6,68.3,30.02,North,350,0.0,3.0,99,0.00,,,0.00,VWS V14.01,2013-07-09 12:52:00,
2013-07-09 08:57:00,68.8,68.2,30.02,NW,325,1.0,3.0,98,0.00,,,0.00,VWS V14.01,2013-07-09 12:57:00,
2013-07-09 09:00:00,69.1,68.5,30.02,NNE,13,1.0,4.0,98,0.00,,,0.00,VWS V14.01,2013-07-09 13:00:00,
2013-07-09 09:02:00,69.2,68.6,30.02,NNE,13,1.0,1.0,98,0.00,,,0.00,VWS V14.01,2013-07-09 13:02:00,
2013-07-09 09:07:00,69.3,68.7,30.02,WNW,296,1.0,4.0,98,0.00,,,0.00,VWS V14.01,2013-07-09 13:07:00,
2013-07-09 09:12:00,69.5,68.9,30.02,ENE,61,0.0,4.0,98,0.00,,,0.00,VWS V14.01,2013-07-09 13:12:00,
2013-07-09 09:17:00,69.8,69.2,30.02,North,355,0.0,4.0,98,0.00,,,0.00,VWS V14.01,2013-07-09 13:17:00,
2013-07-09 09:22:00,69.8,68.9,30.02,NE,36,0.0,5.0,97,0.00,,,0.00,VWS V14.01,2013-07-09 13:22:00,
2013-07-09 09:27:00,69.9,69.0,30.02,NE,40,0.0,5.0,97,0.00,,,0.00,VWS V14.01,2013-07-09 13:27:00,
2013-07-09 09:30:00,70.1,68.9,30.02,NNW,344,0.0,5.0,96,0.00,,,0.00,VWS V14.01,2013-07-09 13:30:00,
2013-07-09 09:32:00,70.1,68.9,30.02,NNW,344,0.0,1.0,96,0.00,,,0.00,VWS V14.01,2013-07-09 13:32:00,
2013-07-09 09:37:00,70.2,69.0,30.02,NNE,15,0.0,5.0,96,0.00,,,0.00,VWS V14.01,2013-07-09 13:37:00,
2013-07-09 09:42:00,70.4,69.2,30.02,NNE,15,0.0,5.0,96,0.00,,,0.00,VWS V14.01,2013-07-09 13:42:00,
2013-07-09 09:47:00,70.7,69.2,30.02,NE,52,2.0,5.0,95,0.00,,,0.00,VWS V14.01,2013-07-09 13:47:00,
2013-07-09 09:52:00,70.8,69.0,30.02,WNW,298,0.0,5.0,94,0.00,,,0.00,VWS V14.01,2013-07-09 13:52:00,
2013-07-09 09:57:00,71.4,69.9,30.02,WNW,298,0.0,5.0,95,0.00,,,0.00,VWS V14.01,2013-07-09 13:57:00,
2013-07-09 10:00:00,72.1,70.0,30.02,NNW,334,2.0,5.0,93,0.00,,,0.00,VWS V14.01,2013-07-09 14:00:00,
2013-07-09 10:02:00,72.1,70.0,30.02,NNW,334,2.0,3.0,93,0.00,,,0.00,VWS V14.01,2013-07-09 14:02:00,
2013-07-09 10:07:00,72.4,69.9,30.02,NNE,28,1.0,3.0,92,0.00,,,0.00,VWS V14.01,2013-07-09 14:07:00,
2013-07-09 10:12:00,72.8,70.0,30.02,NNE,32,0.0,3.0,91,0.00,,,0.00,VWS V14.01,2013-07-09 14:12:00,
2013-07-09 10:17:00,72.8,69.7,30.02,West,270,0.0,3.0,90,0.00,,,0.00,VWS V14.01,2013-07-09 14:17:00,
2013-07-09 10:22:00,72.7,69.6,30.02,WNW,289,2.0,3.0,90,0.00,,,0.00,VWS V14.01,2013-07-09 14:22:00,
2013-07-09 10:27:00,72.9,70.1,30.02,NE,44,0.0,3.0,91,0.00,,,0.00,VWS V14.01,2013-07-09 14:27:00,
2013-07-09 10:30:00,73.0,69.9,30.02,NE,44,0.0,3.0,90,0.00,,,0.00,VWS V14.01,2013-07-09 14:30:00,
2013-07-09 10:32:00,73.0,69.9,30.02,NE,44,0.0,0.0,90,0.00,,,0.00,VWS V14.01,2013-07-09 14:32:00,
2013-07-09 10:37:00,73.1,70.0,30.02,NNE,29,2.0,3.0,90,0.00,,,0.00,VWS V14.01,2013-07-09 14:37:00,
2013-07-09 10:42:00,73.3,70.2,30.02,NNE,29,2.0,3.0,90,0.00,,,0.00,VWS V14.01,2013-07-09 14:42:00,
2013-07-09 10:47:00,73.3,69.9,30.02,NNE,29,0.0,3.0,89,0.00,,,0.00,VWS V14.01,2013-07-09 14:47:00,
2013-07-09 10:52:00,73.3,69.9,30.02,NNE,29,0.0,3.0,89,0.00,,,0.00,VWS V14.01,2013-07-09 14:52:00,
2013-07-09 10:57:00,73.4,70.0,30.02,NNE,29,0.0,3.0,89,0.00,,,0.00,VWS V14.01,2013-07-09 14:57:00,
2013-07-09 11:00:00,73.4,70.0,30.02,NNE,18,0.0,3.0,89,0.00,,,0.00,VWS V14.01,2013-07-09 15:00:00,
2013-07-09 11:02:00,73.4,70.0,30.03,NNE,18,0.0,0.0,89,0.00,,,0.00,VWS V14.01,2013-07-09 15:02:00,
2013-07-09 11:07:00,73.3,69.9,30.02,SSE,163,0.0,2.0,89,0.00,,,0.00,VWS V14.01,2013-07-09 15:07:00,
2013-07-09 11:12:00,73.3,69.9,30.02,ENE,57,2.0,3.0,89,0.00,,,0.00,VWS V14.01,2013-07-09 15:12:00,
2013-07-09 11:17:00,73.2,69.8,30.02,NNE,19,0.0,4.0,89,0.00,,,0.00,VWS V14.01,2013-07-09 15:17:00,
2013-07-09 11:22:00,73.3,70.2,30.02,ESE,112,1.0,4.0,90,0.00,,,0.00,VWS V14.01,2013-07-09 15:22:00,
2013-07-09 11:27:00,73.4,70.0,30.03,ESE,111,1.0,4.0,89,0.00,,,0.00,VWS V14.01,2013-07-09 15:27:00,
2013-07-09 11:30:00,73.3,70.2,30.03,East,97,0.0,4.0,90,0.00,,,0.00,VWS V14.01,2013-07-09 15:30:00,
2013-07-09 11:32:00,73.3,70.2,30.03,East,98,0.0,0.0,90,0.00,,,0.00,VWS V14.01,2013-07-09 15:32:00,
2013-07-09 11:37:00,73.4,70.3,30.02,East,96,3.0,5.0,90,0.00,,,0.00,VWS V14.01,2013-07-09 15:37:00,
2013-07-09 11:42:00,73.1,69.7,30.03,ESE,103,1.0,5.0,89,0.00,,,0.00,VWS V14.01,2013-07-09 15:42:00,
2013-07-09 11:47:00,72.9,69.5,30.03,East,94,0.0,5.0,89,0.00,,,0.00,VWS V14.01,2013-07-09 15:47:00,
2013-07-09 11:52:00,72.8,69.7,30.03,East,95,0.0,5.0,90,0.00,,,0.00,VWS V14.01,2013-07-09 15:52:00,
2013-07-09 11:57:00,72.9,69.8,30.03,ESE,121,1.0,5.0,90,0.00,,,0.00,VWS V14.01,2013-07-09 15:57:00,
2013-07-09 12:00:00,72.8,69.7,30.03,East,101,1.0,5.0,90,0.00,,,0.00,VWS V14.01,2013-07-09 16:00:00,
2013-07-09 12:02:00,72.8,69.7,30.03,East,101,1.0,1.0,90,0.00,,,0.00,VWS V14.01,2013-07-09 16:02:00,
2013-07-09 12:07:00,72.8,69.7,30.03,East,101,0.0,2.0,90,0.00,,,0.00,VWS V14.01,2013-07-09 16:07:00,
2013-07-09 12:12:00,72.6,69.2,30.03,ESE,104,1.0,4.0,89,0.00,,,0.00,VWS V14.01,2013-07-09 16:12:00,
2013-07-09 12:17:00,72.4,69.3,30.03,ESE,118,2.0,4.0,90,0.00,,,0.00,VWS V14.01,2013-07-09 16:17:00,
2013-07-09 12:22:00,72.2,69.1,30.03,SE,134,0.0,4.0,90,0.00,,,0.00,VWS V14.01,2013-07-09 16:22:00,
2013-07-09 12:27:00,71.9,68.8,30.03,SSE,148,1.0,4.0,90,0.00,,,0.00,VWS V14.01,2013-07-09 16:27:00,
2013-07-09 12:30:00,71.7,68.6,30.03,East,98,0.0,4.0,90,0.00,,,0.00,VWS V14.01,2013-07-09 16:30:00,
2013-07-09 12:32:00,71.7,68.9,30.03,East,98,0.0,0.0,91,0.00,,,0.00,VWS V14.01,2013-07-09 16:32:00,
2013-07-09 12:37:00,71.5,68.4,30.03,NE,47,0.0,5.0,90,0.00,,,0.00,VWS V14.01,2013-07-09 16:37:00,
2013-07-09 12:42:00,71.3,68.5,30.03,NNE,17,1.0,5.0,91,0.00,,,0.00,VWS V14.01,2013-07-09 16:42:00,
2013-07-09 12:47:00,71.3,68.5,30.03,NE,40,0.0,5.0,91,0.00,,,0.00,VWS V14.01,2013-07-09 16:47:00,
2013-07-09 12:52:00,71.4,68.3,30.03,NNE,23,1.0,5.0,90,0.00,,,0.00,VWS V14.01,2013-07-09 16:52:00,
2013-07-09 12:57:00,71.4,68.3,30.03,NE,46,3.0,5.0,90,0.00,,,0.00,VWS V14.01,2013-07-09 16:57:00,
2013-07-09 13:00:00,71.5,68.7,30.03,NNW,329,2.0,5.0,91,0.00,,,0.00,VWS V14.01,2013-07-09 17:00:00,
2013-07-09 13:02:00,71.5,68.7,30.03,NNW,329,2.0,5.0,91,0.00,,,0.00,VWS V14.01,2013-07-09 17:02:00,
2013-07-09 13:07:00,71.6,68.5,30.03,North,355,0.0,4.0,90,0.00,,,0.00,VWS V14.01,2013-07-09 17:07:00,
2013-07-09 13:12:00,71.7,68.3,30.03,East,82,2.0,4.0,89,0.00,,,0.00,VWS V14.01,2013-07-09 17:12:00,
2013-07-09 13:17:00,71.7,68.6,30.03,North,5,0.0,4.0,90,0.00,,,0.00,VWS V14.01,2013-07-09 17:17:00,
2013-07-09 13:22:00,71.8,68.4,30.03,NNE,28,0.0,4.0,89,0.00,,,0.00,VWS V14.01,2013-07-09 17:22:00,
2013-07-09 13:27:00,72.2,69.1,30.03,NE,40,0.0,4.0,90,0.00,,,0.00,VWS V14.01,2013-07-09 17:27:00,
2013-07-09 13:30:00,72.3,68.9,30.03,North,355,0.0,5.0,89,0.00,,,0.00,VWS V14.01,2013-07-09 17:30:00,
2013-07-09 13:32:00,72.3,68.9,30.03,North,355,0.0,0.0,89,0.00,,,0.00,VWS V14.01,2013-07-09 17:32:00,
2013-07-09 13:37:00,72.5,69.1,30.03,NE,34,1.0,3.0,89,0.00,,,0.00,VWS V14.01,2013-07-09 17:37:00,
2013-07-09 13:42:00,72.6,68.8,30.03,NNW,338,0.0,4.0,88,0.00,,,0.00,VWS V14.01,2013-07-09 17:42:00,
2013-07-09 13:47:00,72.8,69.0,30.02,ESE,114,0.0,4.0,88,0.00,,,0.00,VWS V14.01,2013-07-09 17:47:00,
2013-07-09 13:52:00,73.0,69.2,30.02,North,355,2.0,4.0,88,0.00,,,0.00,VWS V14.01,2013-07-09 17:52:00,
2013-07-09 13:57:00,73.1,69.0,30.02,NNE,29,2.0,4.0,87,0.00,,,0.00,VWS V14.01,2013-07-09 17:57:00,
2013-07-09 14:00:00,73.0,68.9,30.03,ESE,103,0.0,4.0,87,0.00,,,0.00,VWS V14.01,2013-07-09 18:00:00,
2013-07-09 14:02:00,73.0,68.9,30.03,ESE,103,0.0,4.0,87,0.00,,,0.00,VWS V14.01,2013-07-09 18:02:00,
2013-07-09 14:07:00,72.8,68.7,30.03,NNE,30,0.0,4.0,87,0.00,,,0.00,VWS V14.01,2013-07-09 18:07:00,
2013-07-09 14:12:00,72.6,68.8,30.02,NNE,29,1.0,4.0,88,0.00,,,0.00,VWS V14.01,2013-07-09 18:12:00,
2013-07-09 14:17:00,72.5,68.8,30.02,East,88,0.0,5.0,88,0.00,,,0.00,VWS V14.01,2013-07-09 18:17:00,
2013-07-09 14:22:00,72.4,68.7,30.02,NE,36,1.0,5.0,88,0.00,,,0.00,VWS V14.01,2013-07-09 18:22:00,
2013-07-09 14:27:00,72.5,69.1,30.02,NNE,32,3.0,5.0,89,0.00,,,0.00,VWS V14.01,2013-07-09 18:27:00,
2013-07-09 14:30:00,72.8,69.4,30.02,NNE,13,0.0,5.0,89,0.00,,,0.00,VWS V14.01,2013-07-09 18:30:00,
2013-07-09 14:32:00,72.8,69.4,30.02,NNE,13,0.0,5.0,89,0.00,,,0.00,VWS V14.01,2013-07-09 18:32:00,
2013-07-09 14:37:00,73.2,69.4,30.02,SE,134,2.0,3.0,88,0.00,,,0.00,VWS V14.01,2013-07-09 18:37:00,
2013-07-09 14:42:00,73.1,69.3,30.02,West,278,0.0,3.0,88,0.00,,,0.00,VWS V14.01,2013-07-09 18:42:00,
2013-07-09 14:47:00,73.2,69.4,30.02,East,94,0.0,3.0,88,0.00,,,0.00,VWS V14.01,2013-07-09 18:47:00,
2013-07-09 14:52:00,73.3,69.5,30.02,NW,325,2.0,4.0,88,0.00,,,0.00,VWS V14.01,2013-07-09 18:52:00,
2013-07-09 14:57:00,73.7,69.6,30.02,North,360,1.0,5.0,87,0.00,,,0.00,VWS V14.01,2013-07-09 18:57:00,
2013-07-09 15:00:00,74.2,69.8,30.02,NNW,336,3.0,5.0,86,0.00,,,0.00,VWS V14.01,2013-07-09 19:00:00,
2013-07-09 15:02:00,74.1,69.7,30.02,NNW,336,2.0,5.0,86,0.00,,,0.00,VWS V14.01,2013-07-09 19:02:00,
2013-07-09 15:07:00,74.4,70.3,30.02,NNW,336,0.0,3.0,87,0.00,,,0.00,VWS V14.01,2013-07-09 19:07:00,
2013-07-09 15:12:00,74.5,70.0,30.02,NE,52,0.0,3.0,86,0.00,,,0.00,VWS V14.01,2013-07-09 19:12:00,
2013-07-09 15:17:00,74.6,70.1,30.02,North,351,0.0,3.0,86,0.00,,,0.00,VWS V14.01,2013-07-09 19:17:00,
2013-07-09 15:22:00,74.5,69.7,30.03,North,351,0.0,3.0,85,0.00,,,0.00,VWS V14.01,2013-07-09 19:22:00,
2013-07-09 15:27:00,74.5,70.0,30.02,North,351,0.0,3.0,86,0.00,,,0.00,VWS V14.01,2013-07-09 19:27:00,
2013-07-09 15:30:00,74.5,69.7,30.02,SSW,203,1.0,3.0,85,0.00,,,0.00,VWS V14.01,2013-07-09 19:30:00,
2013-07-09 15:32:00,74.5,69.7,30.02,SSW,204,1.0,3.0,85,0.00,,,0.00,VWS V14.01,2013-07-09 19:32:00,
2013-07-09 15:37:00,74.1,69.7,30.02,SE,132,0.0,3.0,86,0.00,,,0.00,VWS V14.01,2013-07-09 19:37:00,
2013-07-09 15:42:00,73.7,69.3,30.02,ESE,116,0.0,3.0,86,0.00,,,0.00,VWS V14.01,2013-07-09 19:42:00,
2013-07-09 15:47:00,73.4,69.3,30.02,ESE,105,0.0,3.0,87,0.00,,,0.00,VWS V14.01,2013-07-09 19:47:00,
2013-07-09 15:52:00,73.1,69.3,30.02,ESE,105,0.0,3.0,88,0.00,,,0.00,VWS V14.01,2013-07-09 19:52:00,
2013-07-09 15:57:00,73.0,69.2,30.02,ESE,104,0.0,3.0,88,0.00,,,0.00,VWS V14.01,2013-07-09 19:57:00,
2013-07-09 16:00:00,73.3,69.5,30.02,ESE,104,0.0,3.0,88,0.00,,,0.00,VWS V14.01,2013-07-09 20:00:00,
2013-07-09 16:02:00,73.2,69.4,30.02,ESE,104,0.0,3.0,88,0.00,,,0.00,VWS V14.01,2013-07-09 20:02:00,
2013-07-09 16:07:00,73.5,69.7,30.01,ESE,106,0.0,2.0,88,0.00,,,0.00,VWS V14.01,2013-07-09 20:07:00,
2013-07-09 16:12:00,73.6,69.8,30.01,ESE,122,1.0,4.0,88,0.00,,,0.00,VWS V14.01,2013-07-09 20:12:00,
2013-07-09 16:17:00,73.3,69.5,30.01,ENE,77,3.0,6.0,88,0.00,,,0.00,VWS V14.01,2013-07-09 20:17:00,
2013-07-09 16:22:00,73.0,69.2,30.01,NNE,25,0.0,6.0,88,0.00,,,0.00,VWS V14.01,2013-07-09 20:22:00,
2013-07-09 16:27:00,72.9,69.1,30.01,NE,39,0.0,6.0,88,0.00,,,0.00,VWS V14.01,2013-07-09 20:27:00,
2013-07-09 16:30:00,72.9,68.8,30.01,North,5,0.0,6.0,87,0.00,,,0.00,VWS V14.01,2013-07-09 20:30:00,
2013-07-09 16:32:00,72.9,68.8,30.01,North,5,0.0,6.0,87,0.00,,,0.00,VWS V14.01,2013-07-09 20:32:00,
2013-07-09 16:37:00,72.6,69.2,30.01,NW,311,0.0,4.0,89,0.00,,,0.00,VWS V14.01,2013-07-09 20:37:00,
2013-07-09 16:42:00,72.4,69.0,30.01,NNE,28,0.0,5.0,89,0.00,,,0.00,VWS V14.01,2013-07-09 20:42:00,
2013-07-09 16:47:00,72.3,68.9,30.01,SE,136,0.0,5.0,89,0.00,,,0.00,VWS V14.01,2013-07-09 20:47:00,
2013-07-09 16:52:00,72.3,68.9,30.01,NNE,28,0.0,5.0,89,0.00,,,0.00,VWS V14.01,2013-07-09 20:52:00,
2013-07-09 16:57:00,72.3,68.9,30.01,NNE,27,0.0,5.0,89,0.00,,,0.00,VWS V14.01,2013-07-09 20:57:00,
2013-07-09 17:00:00,72.4,69.0,30.01,NNE,22,0.0,5.0,89,0.00,,,0.00,VWS V14.01,2013-07-09 21:00:00,
2013-07-09 17:02:00,72.5,69.1,30.01,NNE,22,0.0,5.0,89,0.00,,,0.00,VWS V14.01,2013-07-09 21:02:00,
2013-07-09 17:07:00,72.6,69.2,30.01,NNE,22,0.0,2.0,89,0.00,,,0.00,VWS V14.01,2013-07-09 21:07:00,
2013-07-09 17:12:00,72.5,69.1,30.00,NE,34,3.0,4.0,89,0.00,,,0.00,VWS V14.01,2013-07-09 21:12:00,
2013-07-09 17:17:00,72.4,69.0,30.00,ENE,71,0.0,4.0,89,0.00,,,0.00,VWS V14.01,2013-07-09 21:17:00,
2013-07-09 17:22:00,72.3,68.9,30.00,NE,34,0.0,4.0,89,0.00,,,0.00,VWS V14.01,2013-07-09 21:22:00,
2013-07-09 17:27:00,72.1,69.0,30.00,NE,35,0.0,4.0,90,0.00,,,0.00,VWS V14.01,2013-07-09 21:27:00,
2013-07-09 17:30:00,72.0,68.9,29.99,ENE,70,0.0,4.0,90,0.00,,,0.00,VWS V14.01,2013-07-09 21:30:00,
2013-07-09 17:32:00,72.0,68.9,29.99,ENE,71,0.0,4.0,90,0.00,,,0.00,VWS V14.01,2013-07-09 21:32:00,
2013-07-09 17:37:00,71.9,69.1,29.99,ENE,70,0.0,1.0,91,0.00,,,0.00,VWS V14.01,2013-07-09 21:37:00,
2013-07-09 17:42:00,72.0,69.6,29.99,ENE,70,0.0,1.0,92,0.00,,,0.00,VWS V14.01,2013-07-09 21:42:00,
2013-07-09 17:47:00,72.1,69.7,29.99,NE,50,2.0,3.0,92,0.00,,,0.00,VWS V14.01,2013-07-09 21:47:00,
2013-07-09 17:52:00,71.8,69.3,29.99,East,92,0.0,3.0,92,0.00,,,0.00,VWS V14.01,2013-07-09 21:52:00,
2013-07-09 17:57:00,71.6,69.2,29.99,East,92,0.0,3.0,92,0.00,,,0.00,VWS V14.01,2013-07-09 21:57:00,
2013-07-09 18:00:00,71.9,69.8,29.99,NNE,14,0.0,4.0,93,0.00,,,0.00,VWS V14.01,2013-07-09 22:00:00,
2013-07-09 18:02:00,71.8,69.7,29.99,NNE,14,1.0,4.0,93,0.00,,,0.00,VWS V14.01,2013-07-09 22:02:00,
2013-07-09 18:07:00,71.9,69.4,29.99,East,100,0.0,2.0,92,0.00,,,0.00,VWS V14.01,2013-07-09 22:07:00,
2013-07-09 18:12:00,71.9,69.4,30.00,NE,39,0.0,3.0,92,0.00,,,0.00,VWS V14.01,2013-07-09 22:12:00,
2013-07-09 18:17:00,71.9,69.4,29.99,NE,40,0.0,3.0,92,0.00,,,0.00,VWS V14.01,2013-07-09 22:17:00,
2013-07-09 18:22:00,71.8,69.3,29.99,North,9,0.0,3.0,92,0.00,,,0.00,VWS V14.01,2013-07-09 22:22:00,
2013-07-09 18:27:00,71.9,69.4,29.99,East,85,0.0,3.0,92,0.00,,,0.00,VWS V14.01,2013-07-09 22:27:00,
2013-07-09 18:30:00,71.9,69.4,30.00,NNE,12,0.0,3.0,92,0.00,,,0.00,VWS V14.01,2013-07-09 22:30:00,
2013-07-09 18:32:00,71.9,69.4,30.00,NNE,12,0.0,3.0,92,0.00,,,0.00,VWS V14.01,2013-07-09 22:32:00,
2013-07-09 18:37:00,71.9,69.4,30.00,North,11,0.0,2.0,92,0.00,,,0.00,VWS V14.01,2013-07-09 22:37:00,
2013-07-09 18:42:00,71.8,69.3,30.00,North,11,0.0,2.0,92,0.00,,,0.00,VWS V14.01,2013-07-09 22:42:00,
2013-07-09 18:47:00,71.7,69.3,30.00,North,11,0.0,2.0,92,0.00,,,0.00,VWS V14.01,2013-07-09 22:47:00,
2013-07-09 18:52:00,71.6,69.2,30.00,NNE,31,0.0,2.0,92,0.00,,,0.00,VWS V14.01,2013-07-09 22:52:00,
2013-07-09 18:57:00,71.4,69.0,29.99,NNE,26,0.0,4.0,92,0.00,,,0.00,VWS V14.01,2013-07-09 22:57:00,
2013-07-09 19:00:00,71.3,68.9,30.00,NNE,26,0.0,4.0,92,0.00,,,0.00,VWS V14.01,2013-07-09 23:00:00,
2013-07-09 19:02:00,71.3,68.9,30.00,NNE,26,0.0,4.0,92,0.00,,,0.00,VWS V14.01,2013-07-09 23:02:00,
2013-07-09 19:07:00,71.1,68.7,30.00,NE,37,0.0,4.0,92,0.00,,,0.00,VWS V14.01,2013-07-09 23:07:00,
2013-07-09 19:12:00,70.9,68.5,29.99,NNE,28,0.0,5.0,92,0.00,,,0.00,VWS V14.01,2013-07-09 23:12:00,
2013-07-09 19:17:00,70.8,68.4,29.99,East,93,2.0,5.0,92,0.00,,,0.00,VWS V14.01,2013-07-09 23:17:00,
2013-07-09 19:22:00,70.6,68.2,29.99,NE,44,1.0,5.0,92,0.00,,,0.00,VWS V14.01,2013-07-09 23:22:00,
2013-07-09 19:27:00,70.5,68.1,29.99,ESE,110,3.0,5.0,92,0.00,,,0.00,VWS V14.01,2013-07-09 23:27:00,
2013-07-09 19:30:00,70.3,67.9,29.99,East,100,0.0,5.0,92,0.00,,,0.00,VWS V14.01,2013-07-09 23:30:00,
2013-07-09 19:32:00,70.3,67.9,29.99,East,100,0.0,5.0,92,0.00,,,0.00,VWS V14.01,2013-07-09 23:32:00,
2013-07-09 19:37:00,70.3,68.2,29.99,East,90,2.0,2.0,93,0.00,,,0.00,VWS V14.01,2013-07-09 23:37:00,
2013-07-09 19:42:00,70.1,67.7,30.00,ESE,102,1.0,4.0,92,0.00,,,0.00,VWS V14.01,2013-07-09 23:42:00,
2013-07-09 19:47:00,70.1,68.0,30.00,ESE,105,1.0,4.0,93,0.00,,,0.00,VWS V14.01,2013-07-09 23:47:00,
2013-07-09 19:52:00,70.0,67.9,30.00,NNE,20,0.0,4.0,93,0.00,,,0.00,VWS V14.01,2013-07-09 23:52:00,
2013-07-09 19:57:00,70.0,67.9,30.00,NNE,25,1.0,4.0,93,0.00,,,0.00,VWS V14.01,2013-07-09 23:57:00,
2013-07-09 20:00:00,69.9,67.8,30.00,NE,42,0.0,4.0,93,0.00,,,0.00,VWS V14.01,2013-07-10 00:00:00,
2013-07-09 20:02:00,69.9,67.8,30.00,NE,42,0.0,4.0,93,0.00,,,0.00,VWS V14.01,2013-07-10 00:02:00,
2013-07-09 20:07:00,69.8,67.7,30.00,NE,41,0.0,5.0,93,0.00,,,0.00,VWS V14.01,2013-07-10 00:07:00,
2013-07-09 20:12:00,69.6,67.5,30.00,SW,216,0.0,5.0,93,0.00,,,0.00,VWS V14.01,2013-07-10 00:12:00,
2013-07-09 20:17:00,69.5,67.4,30.00,NE,44,1.0,5.0,93,0.00,,,0.00,VWS V14.01,2013-07-10 00:17:00,
2013-07-09 20:22:00,69.4,67.6,30.00,NNE,19,0.0,5.0,94,0.00,,,0.00,VWS V14.01,2013-07-10 00:22:00,
2013-07-09 20:27:00,69.4,67.6,30.00,NE,40,0.0,5.0,94,0.00,,,0.00,VWS V14.01,2013-07-10 00:27:00,
2013-07-09 20:30:00,69.3,67.5,30.00,NNE,26,3.0,5.0,94,0.00,,,0.00,VWS V14.01,2013-07-10 00:30:00,
2013-07-09 20:32:00,69.3,67.5,30.00,NE,37,0.0,5.0,94,0.00,,,0.00,VWS V14.01,2013-07-10 00:32:00,
2013-07-09 20:37:00,69.2,67.4,30.00,NE,34,0.0,5.0,94,0.00,,,0.00,VWS V14.01,2013-07-10 00:37:00,
2013-07-09 20:42:00,69.2,67.4,30.01,NNW,333,0.0,5.0,94,0.00,,,0.00,VWS V14.01,2013-07-10 00:42:00,
2013-07-09 20:47:00,69.1,67.3,30.01,North,355,3.0,5.0,94,0.00,,,0.00,VWS V14.01,2013-07-10 00:47:00,
2013-07-09 20:52:00,69.0,67.2,30.01,NNE,26,2.0,5.0,94,0.00,,,0.00,VWS V14.01,2013-07-10 00:52:00,
2013-07-09 20:57:00,69.0,67.5,30.01,NNE,26,0.0,5.0,95,0.00,,,0.00,VWS V14.01,2013-07-10 00:57:00,
2013-07-09 21:00:00,69.0,67.5,30.01,ENE,78,2.0,5.0,95,0.00,,,0.00,VWS V14.01,2013-07-10 01:00:00,
2013-07-09 21:02:00,69.0,67.5,30.01,NNE,26,3.0,5.0,95,0.00,,,0.00,VWS V14.01,2013-07-10 01:02:00,
2013-07-09 21:07:00,69.0,67.5,30.01,ENE,78,1.0,1.0,95,0.00,,,0.00,VWS V14.01,2013-07-10 01:07:00,
2013-07-09 21:12:00,69.0,67.5,30.01,NNE,15,0.0,3.0,95,0.00,,,0.00,VWS V14.01,2013-07-10 01:12:00,
2013-07-09 21:17:00,69.0,67.5,30.01,NNE,15,0.0,3.0,95,0.00,,,0.00,VWS V14.01,2013-07-10 01:17:00,
2013-07-09 21:22:00,68.9,67.4,30.02,SSE,151,0.0,3.0,95,0.00,,,0.00,VWS V14.01,2013-07-10 01:22:00,
2013-07-09 21:27:00,69.0,67.5,30.01,SSE,150,0.0,3.0,95,0.00,,,0.00,VWS V14.01,2013-07-10 01:27:00,
2013-07-09 21:30:00,69.0,67.5,30.01,NNE,28,1.0,3.0,95,0.00,,,0.00,VWS V14.01,2013-07-10 01:30:00,
2013-07-09 21:32:00,69.0,67.5,30.01,NNE,28,2.0,3.0,95,0.00,,,0.00,VWS V14.01,2013-07-10 01:32:00,
2013-07-09 21:36:00,69.0,67.5,30.02,NNE,28,0.0,3.0,95,0.00,,,0.00,VWS V14.01,2013-07-10 01:36:00,
2013-07-09 21:41:00,69.0,67.5,30.02,NNE,28,0.0,3.0,95,0.00,,,0.00,VWS V14.01,2013-07-10 01:41:00,
2013-07-09 21:46:00,68.9,67.4,30.02,NNE,28,0.0,4.0,95,0.00,,,0.00,VWS V14.01,2013-07-10 01:46:00,
2013-07-09 21:51:00,68.9,67.4,30.01,NNE,24,0.0,4.0,95,0.00,,,0.00,VWS V14.01,2013-07-10 01:51:00,
2013-07-09 21:56:00,69.0,67.5,30.01,NE,36,0.0,4.0,95,0.00,,,0.00,VWS V14.01,2013-07-10 01:56:00,
2013-07-09 22:00:00,69.0,67.5,30.01,East,79,1.0,4.0,95,0.00,,,0.00,VWS V14.01,2013-07-10 02:00:00,
2013-07-09 22:01:00,69.0,67.5,30.01,East,84,0.0,4.0,95,0.00,,,0.00,VWS V14.01,2013-07-10 02:01:00,
2013-07-09 22:06:00,69.0,67.5,30.01,East,83,1.0,1.0,95,0.00,,,0.00,VWS V14.01,2013-07-10 02:06:00,
2013-07-09 22:12:00,69.0,67.5,30.00,East,89,0.0,2.0,95,0.00,,,0.00,VWS V14.01,2013-07-10 02:12:00,
2013-07-09 22:17:00,69.0,67.5,30.00,East,86,1.0,2.0,95,0.00,,,0.00,VWS V14.01,2013-07-10 02:17:00,
2013-07-09 22:21:00,69.0,67.5,30.00,ENE,74,1.0,4.0,95,0.00,,,0.00,VWS V14.01,2013-07-10 02:21:00,
2013-07-09 22:27:00,68.9,67.4,30.00,ENE,76,0.0,4.0,95,0.00,,,0.00,VWS V14.01,2013-07-10 02:27:00,
2013-07-09 22:30:00,68.9,67.7,30.00,North,11,1.0,4.0,96,0.00,,,0.00,VWS V14.01,2013-07-10 02:30:00,
2013-07-09 22:31:00,68.9,67.7,30.00,North,11,0.0,4.0,96,0.00,,,0.00,VWS V14.01,2013-07-10 02:31:00,
2013-07-09 22:36:00,68.9,67.7,30.01,North,11,0.0,2.0,96,0.00,,,0.00,VWS V14.01,2013-07-10 02:36:00,
2013-07-09 22:41:00,68.9,67.7,30.01,ESE,107,0.0,2.0,96,0.00,,,0.00,VWS V14.01,2013-07-10 02:41:00,
2013-07-09 22:46:00,68.9,67.7,30.01,ESE,103,0.0,2.0,96,0.00,,,0.00,VWS V14.01,2013-07-10 02:46:00,
2013-07-09 22:51:00,69.0,67.8,30.01,ESE,102,0.0,2.0,96,0.00,,,0.00,VWS V14.01,2013-07-10 02:51:00,
2013-07-09 22:56:00,69.0,67.8,30.01,ESE,103,0.0,2.0,96,0.00,,,0.00,VWS V14.01,2013-07-10 02:56:00,
2013-07-09 23:00:00,69.0,67.8,30.01,SSE,163,0.0,2.0,96,0.00,,,0.00,VWS V14.01,2013-07-10 03:00:00,
2013-07-09 23:01:00,69.0,67.8,30.01,SSE,163,1.0,2.0,96,0.00,,,0.00,VWS V14.01,2013-07-10 03:01:00,
2013-07-09 23:06:00,69.0,67.8,30.01,ESE,123,0.0,2.0,96,0.00,,,0.00,VWS V14.01,2013-07-10 03:06:00,
2013-07-09 23:11:00,69.1,67.9,30.01,East,95,1.0,2.0,96,0.00,,,0.00,VWS V14.01,2013-07-10 03:11:00,
2013-07-09 23:16:00,69.1,67.9,30.01,East,94,0.0,2.0,96,0.00,,,0.00,VWS V14.01,2013-07-10 03:16:00,
2013-07-09 23:21:00,69.1,67.9,30.00,East,94,1.0,2.0,96,0.00,,,0.00,VWS V14.01,2013-07-10 03:21:00,
2013-07-09 23:26:00,69.2,68.0,30.01,East,96,0.0,3.0,96,0.00,,,0.00,VWS V14.01,2013-07-10 03:26:00,
2013-07-09 23:30:00,69.2,68.0,30.01,East,96,0.0,3.0,96,0.00,,,0.00,VWS V14.01,2013-07-10 03:30:00,
2013-07-09 23:31:00,69.2,68.0,30.01,East,96,0.0,3.0,96,0.00,,,0.00,VWS V14.01,2013-07-10 03:31:00,
2013-07-09 23:36:00,69.2,68.0,30.01,East,96,0.0,1.0,96,0.00,,,0.00,VWS V14.01,2013-07-10 03:36:00,
2013-07-09 23:41:00,69.2,68.0,30.01,East,96,0.0,1.0,96,0.00,,,0.00,VWS V14.01,2013-07-10 03:41:00,
2013-07-09 23:46:00,69.2,68.0,30.01,East,96,0.0,1.0,96,0.00,,,0.00,VWS V14.01,2013-07-10 03:46:00,
2013-07-09 23:51:00,69.2,68.0,30.01,East,91,0.0,2.0,96,0.00,,,0.00,VWS V14.01,2013-07-10 03:51:00,
2013-07-09 23:56:00,69.2,68.0,30.01,East,91,0.0,2.0,96,0.00,,,0.00,VWS V14.01,2013-07-10 03:56:00,